This is the latest recevied weather packets stored in our database for station/object DB0WV-6. If no packets are shown the sender has not sent any weather packets the latest 10 day(s).
| Time | Temp. | Humidity | Pressure | Rain* | Wind** | Luminosity | Snow |
|---|---|---|---|---|---|---|---|
| 1777334114 | 11.11° C | 45% | 1014.5 hPa | 0 mm | - | - | - |
| 1777332333 | 11.67° C | 42% | 1014.5 hPa | 0 mm | - | - | - |
| 1777330513 | 11.67° C | 44% | 1014.6 hPa | 0 mm | - | - | - |
| 1777320915 | 12.22° C | 46% | 1015.5 hPa | 0 mm | - | - | - |
| 1777319713 | 12.78° C | 46% | 1015.6 hPa | 0 mm | - | - | - |
| 1777317314 | 13.33° C | 45% | 1015.7 hPa | 0 mm | - | - | - |
| 1777315515 | 13.89° C | 46% | 1015.6 hPa | 0 mm | - | - | - |
| 1777310735 | 16.11° C | 40% | 1015.5 hPa | 0 mm | - | - | - |
| 1777305914 | 17.78° C | 37% | 1016.1 hPa | 0 mm | - | - | - |
| 1777304715 | 18.33° C | 37% | 1016.3 hPa | 0 mm | - | - | - |
| 1777301715 | 19.44° C | 32% | 1016.6 hPa | 0 mm | - | - | - |
| 1777300515 | 19.44° C | 33% | 1016.8 hPa | 0 mm | - | - | - |
| 1777298735 | 20° C | 32% | 1017.1 hPa | 0 mm | - | - | - |
| 1777297515 | 19.44° C | 32% | 1017.3 hPa | 0 mm | - | - | - |
| 1777296315 | 19.44° C | 33% | 1017.4 hPa | 0 mm | - | - | - |
| 1777295715 | 19.44° C | 33% | 1017.5 hPa | 0 mm | - | - | - |
| 1777293915 | 18.89° C | 33% | 1017.6 hPa | 0 mm | - | - | - |
| 1777287315 | 20.56° C | 28% | 1018.6 hPa | 0 mm | - | - | - |
| 1777284934 | 18.33° C | 37% | 1018.7 hPa | 0 mm | - | - | - |
| 1777282516 | 17.22° C | 41% | 1018.9 hPa | 0 mm | - | - | - |
| 1777281915 | 16.67° C | 43% | 1018.9 hPa | 0 mm | - | - | - |
| 1777281315 | 16.11° C | 45% | 1019 hPa | 0 mm | - | - | - |
| 1777277715 | 14.44° C | 50% | 1019 hPa | 0 mm | - | - | - |
| 1777272916 | 11.11° C | 58% | 1018.8 hPa | 0 mm | - | - | - |
| 1777268116 | 8.33° C | 64% | 1018.6 hPa | 0 mm | - | - | - |
* Rain latest hour (hover to see other rain measurements)
** Current wind speed in m/s (hover to see current wind gust speed)